createdAt,value
2018-08-25T00:00:06.087Z,3.08
2018-08-25T00:02:35.111Z,2.15
2018-08-25T00:05:04.316Z,2.98
2018-08-25T00:07:33.562Z,2.87
2018-08-25T00:10:02.801Z,3.45
2018-08-25T00:12:31.727Z,2.62
2018-08-25T00:15:01.138Z,3.35
2018-08-25T00:17:30.107Z,2.92
2018-08-25T00:19:59.218Z,3.22
2018-08-25T00:22:28.546Z,3.00
2018-08-25T00:24:57.596Z,2.70
2018-08-25T00:27:26.611Z,3.42
2018-08-25T00:29:55.922Z,3.47
2018-08-25T00:32:25.023Z,2.77
2018-08-25T00:34:54.183Z,3.00
2018-08-25T00:37:23.377Z,2.75
2018-08-25T00:39:52.456Z,2.80
2018-08-25T00:42:21.386Z,3.05
2018-08-25T00:44:50.988Z,3.52
2018-08-25T00:47:20.194Z,3.15
2018-08-25T00:49:49.284Z,4.15
2018-08-25T00:52:18.815Z,3.62
2018-08-25T00:54:48.073Z,3.87
2018-08-25T00:57:17.264Z,3.62
2018-08-25T00:59:46.383Z,3.92
2018-08-25T01:02:15.402Z,3.83
2018-08-25T01:04:44.507Z,3.50
2018-08-25T01:07:14.074Z,4.08
2018-08-25T01:09:43.098Z,4.10
2018-08-25T01:12:12.215Z,3.77
2018-08-25T01:14:41.691Z,4.10
2018-08-25T01:17:10.905Z,4.05
2018-08-25T01:19:39.981Z,4.03
2018-08-25T01:22:09.313Z,4.30
2018-08-25T01:24:38.375Z,4.50
2018-08-25T01:27:07.592Z,4.37
2018-08-25T01:29:36.798Z,4.17
2018-08-25T01:32:05.890Z,4.97
2018-08-25T01:34:35.051Z,4.30
2018-08-25T01:37:04.590Z,5.00
2018-08-25T01:39:33.696Z,5.15
2018-08-25T01:42:02.637Z,5.35
2018-08-25T01:44:31.679Z,4.70
2018-08-25T01:47:01.015Z,4.97
2018-08-25T01:49:30.065Z,5.50
2018-08-25T01:51:59.591Z,5.62
2018-08-25T01:54:28.571Z,5.80
2018-08-25T01:56:57.876Z,5.22
2018-08-25T01:59:27.096Z,5.30
2018-08-25T02:01:56.059Z,5.50
2018-08-25T02:04:25.053Z,6.17
2018-08-25T02:06:54.102Z,5.65
2018-08-25T02:09:23.042Z,5.87
2018-08-25T02:11:52.050Z,5.92
2018-08-25T02:14:21.562Z,5.80
2018-08-25T02:16:50.536Z,5.78
2018-08-25T02:19:19.436Z,5.15
2018-08-25T02:21:48.822Z,6.75
2018-08-25T02:24:17.848Z,6.58
2018-08-25T02:26:47.118Z,6.37
2018-08-25T02:29:16.634Z,6.47
2018-08-25T02:31:45.716Z,7.05
2018-08-25T02:34:14.905Z,6.53
2018-08-25T02:36:44.381Z,6.20
2018-08-25T02:39:14.453Z,6.20
2018-08-25T02:41:44.155Z,6.25
2018-08-25T02:44:13.211Z,5.85
2018-08-25T02:46:42.369Z,6.60
2018-08-25T02:49:11.364Z,6.40
2018-08-25T02:51:40.387Z,6.20
2018-08-25T02:54:09.668Z,5.70
2018-08-25T02:56:38.657Z,6.25
2018-08-25T02:59:07.622Z,6.58
2018-08-25T03:01:36.772Z,7.00
2018-08-25T03:04:05.678Z,6.50
2018-08-25T03:06:34.757Z,6.20
2018-08-25T03:09:04.483Z,5.80
2018-08-25T03:11:33.427Z,6.83
2018-08-25T03:14:02.559Z,6.97
2018-08-25T03:16:31.515Z,7.22
2018-08-25T03:19:00.506Z,6.95
2018-08-25T03:21:29.882Z,6.08
2018-08-25T03:23:59.099Z,6.28
2018-08-25T03:26:28.124Z,6.42
2018-08-25T03:28:57.442Z,6.35
2018-08-25T03:31:26.525Z,6.90
2018-08-25T03:33:55.726Z,7.12
2018-08-25T03:36:25.098Z,6.95
2018-08-25T03:38:54.302Z,6.85
2018-08-25T03:41:23.271Z,7.17
2018-08-25T03:43:53.196Z,6.78
2018-08-25T03:46:22.330Z,7.85
2018-08-25T03:48:51.462Z,7.53
2018-08-25T03:51:20.564Z,6.72
2018-08-25T03:53:49.999Z,6.72
2018-08-25T03:56:19.440Z,6.37
2018-08-25T03:58:48.757Z,6.83
2018-08-25T04:01:18.036Z,6.40
2018-08-25T04:03:47.048Z,6.92
2018-08-25T04:06:16.619Z,5.62
2018-08-25T04:08:45.527Z,6.10
2018-08-25T04:11:14.526Z,6.50
2018-08-25T04:13:43.628Z,5.85
2018-08-25T04:16:12.501Z,7.05
2018-08-25T04:18:41.519Z,6.22
2018-08-25T04:21:10.822Z,6.00
2018-08-25T04:23:39.805Z,7.37
2018-08-25T04:26:08.871Z,6.40
2018-08-25T04:28:38.222Z,6.15
2018-08-25T04:31:07.194Z,5.40
2018-08-25T04:33:36.145Z,6.50
2018-08-25T04:36:05.119Z,6.40
2018-08-25T04:38:34.377Z,5.30
2018-08-25T04:41:03.350Z,5.92
2018-08-25T04:43:32.384Z,5.58
2018-08-25T04:46:01.486Z,6.28
2018-08-25T04:48:30.611Z,6.37
2018-08-25T04:50:59.669Z,6.53
2018-08-25T04:53:28.751Z,6.20
2018-08-25T04:55:58.078Z,5.58
2018-08-25T04:58:27.272Z,5.78
2018-08-25T05:00:56.267Z,5.62
2018-08-25T05:03:25.390Z,6.22
2018-08-25T05:05:54.451Z,6.22
2018-08-25T05:08:23.915Z,7.67
2018-08-25T05:10:53.099Z,5.67
2018-08-25T05:13:22.146Z,6.00
2018-08-25T05:15:51.332Z,5.97
2018-08-25T05:18:20.789Z,6.05
2018-08-25T05:20:49.940Z,6.25
2018-08-25T05:23:18.835Z,6.28
2018-08-25T05:25:48.148Z,6.97
2018-08-25T05:28:17.154Z,8.20
2018-08-25T05:30:46.131Z,7.60
2018-08-25T05:33:15.577Z,7.03
2018-08-25T05:35:44.746Z,7.05
2018-08-25T05:38:13.760Z,7.17
2018-08-25T05:40:46.417Z,7.08
2018-08-25T05:43:15.520Z,7.50
2018-08-25T05:45:45.283Z,6.28
2018-08-25T05:48:14.955Z,7.08
2018-08-25T05:50:44.252Z,7.30
2018-08-25T05:53:13.510Z,7.90
2018-08-25T05:55:44.171Z,8.33
2018-08-25T05:58:14.388Z,7.90
2018-08-25T06:00:43.586Z,8.65
2018-08-25T06:03:13.088Z,8.18
2018-08-25T06:05:42.183Z,8.50
2018-08-25T06:08:11.194Z,8.50
2018-08-25T06:10:40.539Z,8.48
2018-08-25T06:13:09.700Z,9.10
2018-08-25T06:15:38.827Z,8.90
2018-08-25T06:18:08.510Z,9.55
2018-08-25T06:20:37.675Z,9.30
2018-08-25T06:23:06.844Z,9.20
2018-08-25T06:25:36.223Z,9.88
2018-08-25T06:28:05.303Z,8.88
2018-08-25T06:30:34.487Z,9.00
2018-08-25T06:33:03.769Z,9.98
2018-08-25T06:35:32.768Z,9.73
2018-08-25T06:38:01.726Z,8.65
2018-08-25T06:40:30.863Z,8.93
2018-08-25T06:43:00.074Z,9.18
2018-08-25T06:45:29.287Z,9.20
2018-08-25T06:47:58.807Z,8.95
2018-08-25T06:50:27.994Z,8.35
2018-08-25T06:52:57.095Z,8.43
2018-08-25T06:55:26.307Z,9.98
2018-08-25T06:57:55.277Z,8.80
2018-08-25T07:00:23.189Z,9.03
2018-08-25T07:02:52.470Z,10.53
2018-08-25T07:05:21.558Z,10.43
2018-08-25T07:07:51.084Z,9.40
2018-08-25T07:10:20.481Z,8.80
2018-08-25T07:12:49.620Z,8.10
2018-08-25T07:15:18.744Z,8.85
2018-08-25T07:17:47.835Z,8.93
2018-08-25T07:20:16.524Z,10.08
2018-08-25T07:22:45.518Z,9.20
2018-08-25T07:25:15.151Z,8.90
2018-08-25T07:27:44.435Z,8.63
2018-08-25T07:30:13.467Z,9.35
2018-08-25T07:32:42.524Z,8.78
2018-08-25T07:35:11.636Z,9.28
2018-08-25T07:37:40.629Z,8.88
2018-08-25T07:40:10.075Z,8.33
2018-08-25T07:42:39.124Z,8.88
2018-08-25T07:45:08.291Z,9.15
2018-08-25T07:47:37.252Z,9.58
2018-08-25T07:50:06.511Z,9.55
2018-08-25T07:52:35.519Z,8.78
2018-08-25T07:55:04.947Z,9.35
2018-08-25T07:57:34.014Z,9.00
2018-08-25T08:00:02.855Z,9.48
2018-08-25T08:02:31.956Z,8.48
2018-08-25T08:05:01.027Z,8.35
2018-08-25T08:07:30.193Z,10.10
2018-08-25T08:09:59.409Z,9.30
2018-08-25T08:12:28.321Z,9.40
2018-08-25T08:14:57.524Z,9.03
2018-08-25T08:17:27.008Z,8.70
2018-08-25T08:19:56.119Z,8.48
2018-08-25T08:22:25.284Z,8.00
2018-08-25T08:24:54.400Z,8.30
2018-08-25T08:27:23.325Z,8.83
2018-08-25T08:29:52.302Z,9.08
2018-08-25T08:32:21.803Z,9.00
2018-08-25T08:34:50.802Z,8.25
2018-08-25T08:37:19.755Z,8.30
2018-08-25T08:39:49.131Z,9.15
2018-08-25T08:42:18.315Z,8.75
2018-08-25T08:44:47.263Z,7.78
2018-08-25T08:47:16.745Z,7.95
2018-08-25T08:49:46.908Z,8.33
2018-08-25T08:52:14.640Z,5.83
2018-08-25T08:54:43.564Z,7.00
2018-08-25T08:57:12.623Z,7.33
2018-08-25T08:59:41.556Z,7.80
2018-08-25T09:02:11.038Z,7.78
2018-08-25T09:04:40.143Z,7.25
2018-08-25T09:07:09.414Z,7.37
2018-08-25T09:09:38.454Z,8.83
2018-08-25T09:12:07.731Z,8.33
2018-08-25T09:14:36.817Z,8.50
2018-08-25T09:17:06.251Z,8.40
2018-08-25T09:19:35.383Z,8.10
2018-08-25T09:22:04.182Z,8.03
2018-08-25T09:24:33.396Z,7.50
2018-08-25T09:27:02.479Z,8.23
2018-08-25T09:29:31.230Z,7.92
2018-08-25T09:32:00.436Z,8.05
2018-08-25T09:34:29.390Z,8.20
2018-08-25T09:36:58.290Z,8.28
2018-08-25T09:39:27.599Z,6.97
2018-08-25T09:41:56.555Z,7.00
2018-08-25T09:44:25.317Z,6.65
2018-08-25T09:46:54.275Z,7.40
2018-08-25T09:49:23.223Z,6.75
2018-08-25T09:51:52.230Z,6.50
2018-08-25T09:54:21.671Z,7.22
2018-08-25T09:56:50.516Z,6.85
2018-08-25T09:59:19.615Z,6.65
2018-08-25T10:01:53.921Z,6.65
2018-08-25T10:04:22.830Z,7.20
2018-08-25T10:06:51.898Z,6.92
2018-08-25T10:09:21.000Z,5.70
2018-08-25T10:11:49.791Z,6.60
2018-08-25T10:14:18.681Z,6.05
2018-08-25T10:16:47.772Z,6.65
2018-08-25T10:19:16.686Z,6.40
2018-08-25T10:21:45.778Z,7.22
2018-08-25T10:24:14.841Z,8.15
2018-08-25T10:26:43.789Z,20.57
2018-08-25T10:29:12.963Z,6.62
2018-08-25T10:31:42.320Z,6.95
2018-08-25T10:34:11.263Z,7.03
2018-08-25T10:36:40.461Z,6.25
2018-08-25T10:39:11.782Z,6.95
2018-08-25T10:41:40.903Z,6.30
2018-08-25T10:44:09.902Z,6.83
2018-08-25T10:46:40.230Z,7.87
2018-08-25T10:49:09.229Z,7.92
2018-08-25T10:51:38.566Z,7.87
2018-08-25T10:54:08.258Z,7.50
2018-08-25T10:56:37.139Z,8.48
2018-08-25T10:59:06.191Z,7.85
2018-08-25T11:01:35.535Z,6.83
2018-08-25T11:04:04.537Z,6.60
2018-08-25T11:06:33.495Z,6.70
2018-08-25T11:09:02.583Z,6.25
2018-08-25T11:11:31.486Z,7.33
2018-08-25T11:14:00.282Z,7.67
2018-08-25T11:16:29.909Z,7.65
2018-08-25T11:18:58.771Z,8.08
2018-08-25T11:21:27.893Z,7.60
2018-08-25T11:23:57.367Z,7.70
2018-08-25T11:26:26.286Z,6.92
2018-08-25T11:28:55.102Z,7.12
2018-08-25T11:31:24.191Z,5.25
2018-08-25T11:33:53.369Z,6.33
2018-08-25T11:36:22.560Z,5.83
2018-08-25T11:38:51.856Z,5.67
2018-08-25T11:41:20.850Z,5.72
2018-08-25T11:43:49.966Z,5.03
2018-08-25T11:46:19.318Z,6.00
2018-08-25T11:48:48.119Z,5.28
2018-08-25T11:51:16.942Z,5.25
2018-08-25T11:53:46.266Z,5.12
2018-08-25T11:56:15.341Z,5.80
2018-08-25T11:58:44.523Z,5.67
2018-08-25T12:01:13.436Z,5.60
2018-08-25T12:03:42.512Z,6.47
2018-08-25T12:06:11.606Z,6.12
2018-08-25T12:08:40.876Z,6.78
2018-08-25T12:11:09.919Z,8.03
2018-08-25T12:13:39.001Z,7.78
2018-08-25T12:16:08.177Z,7.33
2018-08-25T12:18:37.021Z,7.20
2018-08-25T12:21:06.085Z,7.72
2018-08-25T12:23:35.408Z,7.47
2018-08-25T12:26:04.683Z,8.20
2018-08-25T12:28:33.613Z,7.83
2018-08-25T12:31:02.835Z,8.33
2018-08-25T12:33:31.825Z,8.08
2018-08-25T12:36:00.654Z,6.95
2018-08-25T12:38:29.919Z,7.17
2018-08-25T12:40:58.854Z,6.28
2018-08-25T12:43:28.014Z,6.10
2018-08-25T12:45:56.989Z,5.08
2018-08-25T12:48:25.934Z,3.47
2018-08-25T12:50:54.834Z,3.37
2018-08-25T12:53:24.538Z,3.77
2018-08-25T12:55:53.524Z,3.30
2018-08-25T12:58:22.627Z,3.70
2018-08-25T13:00:52.040Z,4.33
2018-08-25T13:03:21.111Z,3.83
2018-08-25T13:05:50.028Z,4.15
2018-08-25T13:08:19.396Z,4.08
2018-08-25T13:10:48.600Z,4.05
2018-08-25T13:13:17.697Z,4.10
2018-08-25T13:15:47.029Z,3.92
2018-08-25T13:18:16.031Z,4.33
2018-08-25T13:20:45.196Z,3.95
2018-08-25T13:23:14.543Z,4.62
2018-08-25T13:25:43.629Z,3.98
2018-08-25T13:28:12.635Z,3.80
2018-08-25T13:30:41.978Z,3.98
2018-08-25T13:33:10.889Z,3.30
2018-08-25T13:35:39.890Z,3.00
2018-08-25T13:38:09.524Z,3.52
2018-08-25T13:40:38.492Z,3.58
2018-08-25T13:43:07.706Z,4.35
2018-08-25T13:45:36.695Z,3.20
2018-08-25T13:48:06.403Z,3.45
2018-08-25T13:50:35.463Z,3.25
2018-08-25T13:53:04.799Z,3.80
2018-08-25T13:55:33.731Z,4.35
2018-08-25T13:58:02.672Z,3.40
2018-08-25T14:00:31.824Z,3.47
2018-08-25T14:03:00.779Z,2.77
2018-08-25T14:05:29.756Z,4.17
2018-08-25T14:07:59.393Z,3.60
2018-08-25T14:10:28.559Z,4.20
2018-08-25T14:12:57.518Z,4.30
2018-08-25T14:15:26.757Z,5.12
2018-08-25T14:17:55.567Z,5.00
2018-08-25T14:20:24.443Z,5.55
2018-08-25T14:22:53.608Z,5.40
2018-08-25T14:25:22.527Z,5.95
2018-08-25T14:27:51.537Z,5.60
2018-08-25T14:30:21.101Z,7.00
2018-08-25T14:32:50.195Z,5.85
2018-08-25T14:35:19.089Z,6.33
2018-08-25T14:37:48.563Z,5.55
2018-08-25T14:40:17.682Z,6.08
2018-08-25T14:42:46.719Z,6.08
2018-08-25T14:45:16.176Z,5.22
2018-08-25T14:47:45.103Z,6.20
2018-08-25T14:50:13.878Z,6.28
2018-08-25T14:52:43.044Z,5.92
2018-08-25T14:55:12.287Z,6.33
2018-08-25T14:57:41.059Z,6.50
2018-08-25T15:00:10.031Z,12.45
2018-08-25T15:02:39.068Z,6.45
2018-08-25T15:05:08.072Z,6.35
2018-08-25T15:07:36.945Z,7.15
2018-08-25T15:10:06.469Z,8.10
2018-08-25T15:12:35.310Z,7.95
2018-08-25T15:15:04.596Z,7.72
2018-08-25T15:17:33.543Z,8.00
2018-08-25T15:20:02.650Z,8.40
2018-08-25T15:22:31.626Z,6.97
2018-08-25T15:25:00.758Z,8.23
2018-08-25T15:27:29.731Z,6.95
2018-08-25T15:29:58.907Z,7.12
2018-08-25T15:32:27.648Z,6.80
2018-08-25T15:34:56.613Z,7.50
2018-08-25T15:37:25.541Z,7.53
2018-08-25T15:39:54.591Z,7.75
2018-08-25T15:42:23.683Z,7.60
2018-08-25T15:44:53.718Z,6.20
2018-08-25T15:47:22.585Z,5.97
2018-08-25T15:49:51.664Z,6.47
2018-08-25T15:52:20.708Z,6.65
2018-08-25T15:54:49.580Z,6.10
2018-08-25T15:57:18.447Z,6.12
2018-08-25T15:59:47.816Z,5.42
2018-08-25T16:02:17.752Z,5.15
2018-08-25T16:04:46.840Z,4.70
2018-08-25T16:07:17.093Z,5.58
2018-08-25T16:09:47.045Z,5.05
2018-08-25T16:12:16.513Z,5.50
2018-08-25T16:14:47.354Z,5.40
2018-08-25T16:17:16.935Z,5.62
2018-08-25T16:19:46.094Z,4.95
2018-08-25T16:22:15.628Z,5.95
2018-08-25T16:24:45.008Z,5.97
2018-08-25T16:27:14.926Z,7.00
2018-08-25T16:29:44.140Z,6.00
2018-08-25T16:32:14.596Z,6.22
2018-08-25T16:34:44.033Z,6.40
2018-08-25T16:37:13.956Z,6.53
2018-08-25T16:39:43.999Z,5.65
2018-08-25T16:42:12.939Z,6.05
2018-08-25T16:44:42.279Z,6.00
2018-08-25T16:47:11.110Z,6.30
2018-08-25T16:49:40.311Z,6.03
2018-08-25T16:52:09.423Z,6.37
2018-08-25T16:54:38.199Z,6.55
2018-08-25T16:57:09.166Z,5.87
2018-08-25T16:59:37.876Z,6.30
2018-08-25T17:02:07.160Z,6.12
2018-08-25T17:04:36.074Z,6.55
2018-08-25T17:07:05.705Z,6.90
2018-08-25T17:09:34.496Z,6.97
2018-08-25T17:12:03.531Z,8.78
2018-08-25T17:14:33.037Z,6.85
2018-08-25T17:17:01.818Z,6.95
2018-08-25T17:19:30.826Z,7.22
2018-08-25T17:22:00.383Z,9.13
2018-08-25T17:24:29.347Z,6.65
2018-08-25T17:26:59.789Z,6.58
2018-08-25T17:29:30.244Z,6.25
2018-08-25T17:31:59.370Z,8.20
2018-08-25T17:34:28.358Z,6.40
2018-08-25T17:36:59.071Z,5.87
2018-08-25T17:39:29.080Z,6.20
2018-08-25T17:41:58.515Z,5.75
2018-08-25T17:44:27.762Z,6.92
2018-08-25T17:46:56.869Z,6.58
2018-08-25T17:49:25.787Z,5.62
2018-08-25T17:51:54.955Z,5.50
2018-08-25T17:54:23.839Z,5.83
2018-08-25T17:56:53.198Z,6.15
2018-08-25T17:59:22.359Z,5.78
2018-08-25T18:01:51.395Z,5.78
2018-08-25T18:04:20.167Z,6.83
2018-08-25T18:06:49.458Z,7.58
2018-08-25T18:09:18.278Z,6.30
2018-08-25T18:11:47.254Z,6.62
2018-08-25T18:14:16.193Z,6.37
2018-08-25T18:16:45.107Z,6.67
2018-08-25T18:19:14.035Z,6.72
2018-08-25T18:21:43.166Z,6.25
2018-08-25T18:24:12.330Z,6.97
2018-08-25T18:26:41.127Z,6.72
2018-08-25T18:29:10.195Z,6.72
2018-08-25T18:31:39.147Z,7.22
2018-08-25T18:34:08.000Z,7.78
2018-08-25T18:36:36.941Z,7.17
2018-08-25T18:39:08.947Z,8.13
2018-08-25T18:41:38.301Z,8.38
2018-08-25T18:44:07.738Z,8.83
2018-08-25T18:46:36.751Z,8.53
2018-08-25T18:49:05.742Z,8.83
2018-08-25T18:51:34.844Z,8.83
2018-08-25T18:54:03.733Z,7.78
2018-08-25T18:56:32.958Z,8.83
2018-08-25T18:59:01.994Z,8.53
2018-08-25T19:01:30.910Z,8.70
2018-08-25T19:04:00.037Z,9.48
2018-08-25T19:06:29.214Z,9.48
2018-08-25T19:08:58.111Z,8.80
2018-08-25T19:11:27.207Z,9.85
2018-08-25T19:13:55.969Z,9.00
2018-08-25T19:16:24.983Z,9.90
2018-08-25T19:18:54.128Z,9.10
2018-08-25T19:21:23.153Z,9.78
2018-08-25T19:23:51.908Z,9.38
2018-08-25T19:26:21.379Z,10.38
2018-08-25T19:28:50.363Z,10.40
2018-08-25T19:31:19.242Z,9.68
2018-08-25T19:33:48.899Z,9.43
2018-08-25T19:36:17.663Z,10.43
2018-08-25T19:38:46.736Z,10.18
2018-08-25T19:41:16.279Z,10.63
2018-08-25T19:43:45.140Z,11.30
2018-08-25T19:46:14.161Z,11.63
2018-08-25T19:48:43.583Z,12.47
2018-08-25T19:51:12.503Z,11.90
2018-08-25T19:53:41.322Z,12.23
2018-08-25T19:56:10.749Z,13.13
2018-08-25T19:58:39.607Z,14.07
2018-08-25T20:01:08.479Z,13.65
2018-08-25T20:03:37.630Z,14.13
2018-08-25T20:06:07.305Z,14.07
2018-08-25T20:08:36.399Z,14.33
2018-08-25T20:11:05.333Z,14.07
2018-08-25T20:13:34.285Z,14.60
2018-08-25T20:16:03.278Z,13.30
2018-08-25T20:18:32.086Z,13.38
2018-08-25T20:21:01.269Z,13.15
2018-08-25T20:23:30.042Z,13.18
2018-08-25T20:25:59.508Z,12.80
2018-08-25T20:28:28.516Z,12.75
2018-08-25T20:30:57.965Z,12.65
2018-08-25T20:33:27.712Z,12.10
2018-08-25T20:35:56.561Z,12.82
2018-08-25T20:38:25.450Z,13.93
2018-08-25T20:40:55.328Z,13.30
2018-08-25T20:43:24.749Z,13.45
2018-08-25T20:45:53.884Z,13.90
2018-08-25T20:48:23.306Z,13.22
2018-08-25T20:50:52.463Z,13.65
2018-08-25T20:53:21.556Z,13.20
2018-08-25T20:55:50.483Z,13.53
2018-08-25T20:58:19.523Z,14.55
2018-08-25T21:00:48.520Z,12.93
2018-08-25T21:03:17.630Z,13.90
2018-08-25T21:05:46.512Z,12.82
2018-08-25T21:08:15.521Z,12.85
2018-08-25T21:10:44.841Z,13.10
2018-08-25T21:13:13.919Z,13.50
2018-08-25T21:15:42.931Z,12.68
2018-08-25T21:18:11.811Z,13.20
2018-08-25T21:20:40.794Z,13.05
2018-08-25T21:23:09.702Z,12.90
2018-08-25T21:25:38.675Z,12.43
2018-08-25T21:28:10.335Z,12.23
2018-08-25T21:30:40.315Z,12.82
2018-08-25T21:33:09.247Z,12.88
2018-08-25T21:35:38.666Z,12.82
2018-08-25T21:38:08.611Z,12.93
2018-08-25T21:40:37.656Z,12.63
2018-08-25T21:43:06.547Z,12.68
2018-08-25T21:45:35.995Z,12.53
2018-08-25T21:48:05.058Z,12.88
2018-08-25T21:50:34.055Z,12.37
2018-08-25T21:53:03.299Z,13.72
2018-08-25T21:55:32.423Z,12.03
2018-08-25T21:58:02.080Z,12.93
2018-08-25T22:00:31.563Z,12.82
2018-08-25T22:03:01.066Z,13.13
2018-08-25T22:05:30.266Z,13.18
2018-08-25T22:07:59.509Z,13.55
2018-08-25T22:10:33.518Z,13.32
2018-08-25T22:13:03.531Z,12.50
2018-08-25T22:15:32.695Z,13.48
2018-08-25T22:18:01.654Z,13.60
2018-08-25T22:20:30.822Z,13.65
2018-08-25T22:22:59.760Z,14.70
2018-08-25T22:25:28.775Z,13.95
2018-08-25T22:27:57.967Z,14.07
2018-08-25T22:30:29.307Z,13.13
2018-08-25T22:33:35.831Z,14.03
2018-08-25T22:36:06.870Z,13.62
2018-08-25T22:38:35.756Z,13.80
2018-08-25T22:41:04.477Z,14.18
2018-08-25T22:43:34.686Z,14.68
2018-08-25T22:46:03.810Z,14.35
2018-08-25T22:48:32.626Z,15.40
2018-08-25T22:51:01.282Z,15.20
2018-08-25T22:53:31.178Z,14.35
2018-08-25T22:56:00.833Z,14.45
2018-08-25T22:58:29.714Z,14.43
2018-08-25T23:00:58.454Z,15.72
2018-08-25T23:03:27.199Z,14.28
2018-08-25T23:05:56.080Z,15.05
2018-08-25T23:08:25.454Z,14.30
2018-08-25T23:10:54.428Z,16.17
2018-08-25T23:13:23.152Z,14.68
2018-08-25T23:15:52.951Z,16.50
2018-08-25T23:18:22.013Z,15.00
2018-08-25T23:20:51.151Z,16.12
2018-08-25T23:23:20.336Z,16.25
2018-08-25T23:25:49.653Z,16.57
2018-08-25T23:28:18.393Z,15.55
2018-08-25T23:30:47.670Z,15.68
2018-08-25T23:33:17.317Z,14.87
2018-08-25T23:35:46.697Z,15.88
2018-08-25T23:38:15.841Z,14.95
2018-08-25T23:40:44.566Z,15.53
2018-08-25T23:43:13.885Z,14.47
2018-08-25T23:45:43.159Z,15.38
2018-08-25T23:48:12.622Z,15.08
2018-08-25T23:50:41.783Z,14.73
2018-08-25T23:53:11.221Z,14.98
2018-08-25T23:55:39.951Z,15.25
2018-08-25T23:58:08.674Z,15.15
